Time;durP1;ratioP1;P1;durP2;ratioP2;P2;SDS_P1;SDS_P2;PMS_P1;PMS_P2;Temp;Humidity;BMP_temperature;BMP_pressure;BME280_temperature;BME280_humidity;BME280_pressure;Samples;Min_cycle;Max_cycle;Signal;HPM_P1;HPM_P2
2023/04/28 00:01:14;;;;;;;17.40;9.60;;;;;;;6.60;100.00;100783.94;5034409;28;20523;-71
2023/04/28 00:03:40;;;;;;;16.45;8.93;;;;;;;7.18;100.00;100864.34;5049759;28;20119;-70
2023/04/28 00:06:06;;;;;;;11.07;8.00;;;;;;;7.15;100.00;100863.41;5050552;28;20485;-69
2023/04/28 00:08:31;;;;;;;8.35;4.82;;;;;;;7.24;100.00;100866.22;5048746;28;20131;-70
2023/04/28 00:10:57;;;;;;;15.65;8.20;;;;;;;6.84;100.00;100794.94;5049701;28;20041;-70
2023/04/28 00:13:22;;;;;;;14.20;7.38;;;;;;;6.16;100.00;100663.97;5049943;28;20049;-69
2023/04/28 00:15:51;;;;;;;11.73;7.97;;;;;;;6.58;100.00;100741.31;5049721;28;20043;-69
2023/04/28 00:18:18;;;;;;;13.90;8.50;;;;;;;6.80;100.00;100772.22;5049728;28;20040;-70
2023/04/28 00:20:43;;;;;;;13.07;8.75;;;;;;;6.57;100.00;100729.16;5031389;28;20037;-72
2023/04/28 00:23:09;;;;;;;13.85;8.40;;;;;;;7.30;100.00;100870.66;5033406;28;20048;-71
2023/04/28 00:25:34;;;;;;;17.00;9.43;;;;;;;7.27;100.00;100857.56;5033909;28;20083;-71
2023/04/28 00:28:00;;;;;;;18.42;5.20;;;;;;;6.51;100.00;100738.59;5032809;28;20428;-71
2023/04/28 00:30:26;;;;;;;11.93;5.35;;;;;;;6.58;100.00;100747.44;5027750;28;22137;-70
2023/04/28 00:32:51;;;;;;;12.13;8.55;;;;;;;7.33;100.00;100881.19;5044500;28;20343;-70
2023/04/28 00:35:17;;;;;;;13.05;8.57;;;;;;;6.87;100.00;100805.41;5048279;28;20053;-70
2023/04/28 00:37:43;;;;;;;11.07;5.85;;;;;;;7.31;100.00;100868.09;5049190;28;20144;-70
2023/04/28 00:40:09;;;;;;;11.32;6.40;;;;;;;7.27;100.00;100868.88;5048310;28;20069;-71
2023/04/28 00:42:35;;;;;;;16.42;8.32;;;;;;;7.30;100.00;100862.84;5047769;28;20759;-71
2023/04/28 00:45:04;;;;;;;13.90;8.70;;;;;;;7.52;100.00;100869.38;5048640;28;20029;-70
2023/04/28 00:47:32;;;;;;;9.45;8.20;;;;;;;7.50;100.00;100877.19;5048626;28;20069;-68
2023/04/28 00:49:59;;;;;;;14.80;8.48;;;;;;;7.13;100.00;100839.88;5048386;28;20041;-72
2023/04/28 00:52:25;;;;;;;19.27;10.13;;;;;;;7.32;100.00;100867.22;5048297;28;20095;-70
2023/04/28 00:54:50;;;;;;;13.63;7.82;;;;;;;6.02;100.00;100654.13;5047853;28;20029;-71
2023/04/28 00:57:16;;;;;;;18.38;10.23;;;;;;;6.77;100.00;100753.91;5047751;28;20033;-69
2023/04/28 00:59:41;;;;;;;12.32;5.65;;;;;;;7.40;100.00;100863.06;5048266;28;20040;-69
2023/04/28 01:02:07;;;;;;;15.15;9.90;;;;;;;6.81;100.00;100728.75;5038363;28;20479;-73
2023/04/28 01:04:34;;;;;;;13.98;9.00;;;;;;;6.97;100.00;100770.84;5048575;28;20067;-71
2023/04/28 01:07:00;;;;;;;15.40;9.85;;;;;;;7.48;100.00;100862.34;5048241;28;20514;-71
2023/04/28 01:09:26;;;;;;;12.68;9.40;;;;;;;7.43;100.00;100856.16;5047291;28;20058;-69
2023/04/28 01:11:51;;;;;;;9.48;6.07;;;;;;;7.57;100.00;100879.06;5048207;28;20477;-71
2023/04/28 01:14:17;;;;;;;13.02;9.15;;;;;;;7.51;100.00;100865.00;5047927;28;20049;-69
2023/04/28 01:16:43;;;;;;;11.05;8.48;;;;;;;7.55;100.00;100882.50;5045158;28;20040;-71
2023/04/28 01:19:21;;;;;;;11.00;8.60;;;;;;;7.70;100.00;100871.47;5047929;28;20064;-69
2023/04/28 01:21:46;;;;;;;10.57;7.45;;;;;;;7.72;100.00;100880.22;5048183;28;20559;-69
2023/04/28 01:24:11;;;;;;;16.80;10.25;;;;;;;7.09;100.00;100767.59;5047420;28;20040;-70
2023/04/28 01:26:37;;;;;;;21.77;10.05;;;;;;;7.57;100.00;100870.34;5047798;28;20442;-70
2023/04/28 01:29:03;;;;;;;14.55;9.40;;;;;;;6.71;100.00;100739.00;5047622;28;20132;-69
2023/04/28 01:31:29;;;;;;;14.35;9.45;;;;;;;7.55;100.00;100890.34;5037944;28;20413;-70
2023/04/28 01:33:55;;;;;;;14.23;9.43;;;;;;;7.51;100.00;100876.31;5047462;28;20512;-69
2023/04/28 01:36:22;;;;;;;13.43;8.73;;;;;;;7.60;100.00;100888.69;5048588;28;20033;-71
2023/04/28 01:38:48;;;;;;;17.75;10.18;;;;;;;7.58;100.00;100886.03;5028691;28;20049;-70
2023/04/28 01:41:14;;;;;;;17.80;8.95;;;;;;;7.53;100.00;100900.72;5032364;28;20048;-70
2023/04/28 01:43:39;;;;;;;17.10;10.82;;;;;;;6.50;100.00;100754.19;5027713;28;20401;-70
2023/04/28 01:46:05;;;;;;;18.88;10.48;;;;;;;6.71;100.00;100762.47;5029419;28;20127;-72
2023/04/28 01:48:31;;;;;;;9.52;8.45;;;;;;;7.53;100.00;100900.72;5027698;28;20091;-70
2023/04/28 01:50:56;;;;;;;13.70;10.88;;;;;;;6.92;100.00;100782.03;5037211;28;20049;-70
2023/04/28 01:53:22;;;;;;;12.10;9.77;;;;;;;6.73;100.00;100747.75;5029250;28;20041;-71
2023/04/28 01:55:47;;;;;;;15.38;9.77;;;;;;;7.43;100.00;100890.97;5028163;28;20041;-70
2023/04/28 01:58:13;;;;;;;14.15;9.27;;;;;;;7.33;100.00;100879.47;5035934;28;20045;-70
2023/04/28 02:00:38;;;;;;;12.75;9.77;;;;;;;7.14;100.00;100885.13;5024555;28;20041;-71
2023/04/28 02:03:04;;;;;;;8.00;5.95;;;;;;;7.12;100.00;100869.44;5037135;28;20036;-70
2023/04/28 02:05:29;;;;;;;20.85;11.40;;;;;;;7.42;100.00;100904.84;5046801;28;20397;-70
2023/04/28 02:07:55;;;;;;;18.50;10.48;;;;;;;6.53;100.00;100755.16;5047122;28;20053;-70
2023/04/28 02:10:20;;;;;;;15.20;9.65;;;;;;;7.25;100.00;100901.88;5046683;28;20402;-69
2023/04/28 02:12:46;;;;;;;23.83;10.88;;;;;;;7.31;100.00;100914.22;5047159;28;20550;-70
2023/04/28 02:15:11;;;;;;;12.57;10.35;;;;;;;7.26;100.00;100885.41;5047755;28;20033;-71
2023/04/28 02:17:37;;;;;;;16.95;11.32;;;;;;;7.39;100.00;100907.41;5042386;28;20057;-70
2023/04/28 02:20:02;;;;;;;25.20;11.05;;;;;;;6.45;100.00;100751.50;5046799;28;20064;-70
2023/04/28 02:22:28;;;;;;;19.80;10.75;;;;;;;7.27;100.00;100894.97;5046849;28;20094;-70
2023/04/28 02:24:53;;;;;;;20.02;11.15;;;;;;;6.48;100.00;100761.09;5047134;28;20045;-70
2023/04/28 02:27:20;;;;;;;18.13;12.25;;;;;;;7.03;100.00;100870.97;5047613;28;20025;-70
2023/04/28 02:29:45;;;;;;;12.57;9.35;;;;;;;6.60;100.00;100791.78;5047093;28;20076;-70
2023/04/28 02:32:11;;;;;;;15.07;10.93;;;;;;;7.14;100.00;100899.06;5037722;28;20075;-70
2023/04/28 02:34:36;;;;;;;19.63;10.82;;;;;;;6.31;100.00;100753.78;5046660;28;20041;-70
2023/04/28 02:37:02;;;;;;;18.65;10.95;;;;;;;7.03;100.00;100877.06;5046498;28;20049;-69
2023/04/28 02:39:28;;;;;;;14.75;10.25;;;;;;;7.21;100.00;100899.19;5047184;28;20032;-70
2023/04/28 02:41:54;;;;;;;9.85;6.32;;;;;;;7.17;100.00;100893.03;5046113;28;20052;-70
2023/04/28 02:44:20;;;;;;;11.35;9.50;;;;;;;7.22;100.00;100907.06;5046616;28;20068;-70
2023/04/28 02:46:46;;;;;;;14.00;9.00;;;;;;;6.64;100.00;100798.81;5046065;28;20630;-70
2023/04/28 02:49:11;;;;;;;14.10;8.75;;;;;;;7.05;100.00;100878.00;5046482;28;20523;-70
2023/04/28 02:51:37;;;;;;;18.23;10.65;;;;;;;7.27;100.00;100931.53;5046421;28;20033;-70
2023/04/28 02:54:03;;;;;;;18.70;10.63;;;;;;;6.69;100.00;100834.56;5047160;28;20037;-70
2023/04/28 02:56:31;;;;;;;9.75;5.32;;;;;;;6.37;100.00;100804.28;5044883;28;20483;-71
2023/04/28 02:58:57;;;;;;;12.70;9.85;;;;;;;6.84;100.00;100886.22;5045924;28;20048;-70
2023/04/28 03:01:23;;;;;;;11.20;9.55;;;;;;;7.18;100.00;100932.19;5026634;28;20038;-71
2023/04/28 03:03:48;;;;;;;18.52;9.85;;;;;;;7.31;100.00;100954.25;5024794;28;20946;-69
2023/04/28 03:06:14;;;;;;;13.15;10.43;;;;;;;6.63;100.00;100851.84;5026961;28;20037;-70
2023/04/28 03:08:40;;;;;;;11.00;5.45;;;;;;;6.58;100.00;100856.03;5032135;28;20516;-70
2023/04/28 03:11:05;;;;;;;17.88;10.30;;;;;;;6.43;100.00;100833.97;5041378;28;20118;-70
2023/04/28 03:13:31;;;;;;;13.20;10.75;;;;;;;6.33;100.00;100809.44;5039053;28;20481;-71
2023/04/28 03:15:56;;;;;;;15.18;10.88;;;;;;;7.07;100.00;100956.28;5039543;28;20584;-70
2023/04/28 03:18:22;;;;;;;13.25;9.70;;;;;;;7.07;100.00;100951.97;5030402;28;20061;-69
2023/04/28 03:20:48;;;;;;;10.07;6.25;;;;;;;7.15;100.00;100988.66;5039225;28;20383;-69
2023/04/28 03:23:14;;;;;;;9.88;7.40;;;;;;;7.04;100.00;100948.41;5033863;28;20095;-69
2023/04/28 03:25:40;;;;;;;18.42;10.88;;;;;;;7.26;100.00;100989.81;5035251;28;20049;-71
2023/04/28 03:28:05;;;;;;;15.48;9.40;;;;;;;6.79;100.00;100911.31;5023531;28;20045;-70
2023/04/28 03:30:31;;;;;;;18.63;10.55;;;;;;;6.58;100.00;100887.31;5029137;28;20453;-70
2023/04/28 03:32:56;;;;;;;20.42;10.63;;;;;;;7.09;100.00;100996.34;5037968;28;20082;-70
2023/04/28 03:35:22;;;;;;;15.75;9.85;;;;;;;6.96;100.00;100995.19;5037324;28;20517;-69
2023/04/28 03:37:48;;;;;;;21.10;11.10;;;;;;;6.93;100.00;100949.03;5031635;28;21268;-71
2023/04/28 03:40:13;;;;;;;13.35;10.88;;;;;;;6.60;100.00;100903.88;5030448;28;20107;-69
2023/04/28 03:42:39;;;;;;;10.05;6.80;;;;;;;7.09;100.00;101009.38;5030868;28;20448;-69
2023/04/28 03:45:05;;;;;;;21.48;11.52;;;;;;;7.07;100.00;101013.69;5038979;28;20494;-70
2023/04/28 03:47:30;;;;;;;17.33;11.57;;;;;;;6.51;100.00;100912.38;5031633;28;20042;-69
2023/04/28 03:49:57;;;;;;;28.90;11.13;;;;;;;6.30;100.00;100886.66;5039515;28;20049;-69
2023/04/28 03:52:23;;;;;;;16.75;11.35;;;;;;;6.91;100.00;100997.69;5030883;28;20045;-69
2023/04/28 03:54:49;;;;;;;11.25;7.05;;;;;;;6.53;100.00;100924.63;5039088;28;20033;-70
2023/04/28 03:57:14;;;;;;;18.65;12.85;;;;;;;6.42;100.00;100897.41;5029523;28;20083;-70
2023/04/28 03:59:39;;;;;;;16.02;11.05;;;;;;;7.21;100.00;101037.50;5031128;28;20137;-70
2023/04/28 04:02:05;;;;;;;39.33;11.40;;;;;;;6.37;100.00;100891.19;5032185;28;20471;-70
2023/04/28 04:04:30;;;;;;;16.38;10.30;;;;;;;6.92;100.00;100990.72;5049582;28;20558;-71
2023/04/28 04:06:56;;;;;;;10.05;6.70;;;;;;;7.21;100.00;101029.69;5048828;28;20455;-69
2023/04/28 04:09:22;;;;;;;9.57;7.10;;;;;;;7.35;100.00;101043.94;5049748;28;20112;-69
2023/04/28 04:11:47;;;;;;;17.10;11.02;;;;;;;7.29;100.00;101046.41;5021269;28;20568;-71
2023/04/28 04:14:13;;;;;;;19.60;11.73;;;;;;;6.82;100.00;100936.59;5035983;28;20080;-71
2023/04/28 04:16:38;;;;;;;16.35;11.30;;;;;;;6.79;100.00;100923.47;5029531;28;20064;-71
2023/04/28 04:19:04;;;;;;;18.80;11.18;;;;;;;6.93;100.00;100932.47;5032742;28;20049;-71
2023/04/28 04:21:30;;;;;;;19.20;11.60;;;;;;;6.78;100.00;100913.88;5042746;28;20107;-70
2023/04/28 04:23:56;;;;;;;15.65;10.38;;;;;;;6.88;100.00;100918.47;5035094;28;20057;-69
2023/04/28 04:26:21;;;;;;;16.35;7.72;;;;;;;7.54;100.00;101072.25;5037714;28;20079;-71
2023/04/28 04:28:48;;;;;;;12.18;6.60;;;;;;;7.69;100.00;101082.16;5039171;28;20124;-70
2023/04/28 04:31:14;;;;;;;15.23;10.85;;;;;;;6.72;100.00;100948.53;5027258;28;20798;-70
2023/04/28 04:33:40;;;;;;;22.52;11.05;;;;;;;7.41;100.00;101049.31;5042954;28;20041;-70
2023/04/28 04:36:06;;;;;;;15.10;10.60;;;;;;;7.60;100.00;101051.47;5049142;28;20037;-71
2023/04/28 04:38:31;;;;;;;29.75;13.05;;;;;;;7.38;100.00;100984.84;5048149;28;20087;-69
2023/04/28 04:40:57;;;;;;;21.38;12.80;;;;;;;7.81;100.00;101040.63;5048662;28;20049;-70
2023/04/28 04:43:22;;;;;;;17.05;11.52;;;;;;;7.39;100.00;100968.31;5047996;28;20052;-70
2023/04/28 04:45:48;;;;;;;17.40;8.77;;;;;;;8.21;100.00;101104.19;5048368;28;20507;-70
2023/04/28 04:48:13;;;;;;;31.05;8.48;;;;;;;7.82;100.00;101037.16;5048071;28;20397;-70
2023/04/28 04:50:40;;;;;;;16.52;12.15;;;;;;;8.35;100.00;101114.91;5048114;28;20554;-69
2023/04/28 04:53:05;;;;;;;20.63;10.55;;;;;;;7.45;100.00;101060.72;5048237;28;20056;-70
2023/04/28 04:55:31;;;;;;;20.92;10.70;;;;;;;7.36;100.00;101070.09;5046183;28;20115;-71
2023/04/28 04:57:56;;;;;;;17.42;12.63;;;;;;;7.86;100.00;101108.66;5042908;28;20073;-71
2023/04/28 05:00:21;;;;;;;20.17;11.93;;;;;;;7.46;100.00;100986.75;5047982;28;20084;-70
2023/04/28 05:02:47;;;;;;;16.88;12.50;;;;;;;7.37;100.00;100970.06;5037921;28;20136;-69
2023/04/28 05:05:12;;;;;;;20.17;10.85;;;;;;;8.41;100.00;101117.72;5047420;28;20044;-69
2023/04/28 05:07:38;;;;;;;24.83;11.45;;;;;;;8.34;100.00;101101.84;5062890;28;20551;-71
2023/04/28 05:10:06;;;;;;;21.52;13.23;;;;;;;7.94;100.00;100997.34;5047162;28;20094;-72
2023/04/28 05:12:31;;;;;;;27.58;13.10;;;;;;;8.70;100.00;101117.38;5047566;28;20037;-70
2023/04/28 05:14:56;;;;;;;19.30;12.35;;;;;;;7.85;100.00;101114.72;5046795;28;20107;-70
2023/04/28 05:17:22;;;;;;;15.70;10.40;;;;;;;7.81;100.00;101021.44;5047783;28;20474;-70
2023/04/28 05:19:47;;;;;;;15.88;12.68;;;;;;;8.93;100.00;101096.00;5047710;28;20504;-70
2023/04/28 05:22:13;;;;;;;14.57;10.50;;;;;;;9.99;100.00;101129.97;5047168;28;20144;-69
2023/04/28 05:24:38;;;;;;;16.73;12.52;;;;;;;10.83;100.00;101147.66;5047397;28;20032;-69
2023/04/28 05:27:04;;;;;;;20.30;11.60;;;;;;;11.34;100.00;101143.78;5046814;28;20559;-69
2023/04/28 05:29:29;;;;;;;15.27;11.20;;;;;;;11.77;100.00;101163.38;5047349;28;20079;-70
2023/04/28 05:31:55;;;;;;;19.27;11.15;;;;;;;11.27;100.00;101034.25;5044784;28;20048;-69
2023/04/28 05:34:20;;;;;;;15.38;8.90;;;;;;;12.49;100.00;101146.28;5046045;28;20477;-69
2023/04/28 05:36:46;;;;;;;14.07;9.55;;;;;;;12.46;100.00;101139.25;5047291;28;20098;-70
2023/04/28 05:39:11;;;;;;;12.85;10.07;;;;;;;12.91;100.00;101092.00;5046582;28;20087;-70
2023/04/28 05:41:36;;;;;;;14.50;9.32;;;;;;;13.48;100.00;101170.22;5033353;28;20045;-69
2023/04/28 05:44:02;;;;;;;17.55;10.52;;;;;;;14.06;91.11;101173.72;5047016;28;20060;-69
2023/04/28 05:46:28;;;;;;;20.58;8.80;;;;;;;14.31;89.36;101171.88;5047357;28;20055;-70
2023/04/28 05:48:53;;;;;;;11.38;7.25;;;;;;;13.18;80.95;101073.56;5047119;28;20095;-70
2023/04/28 05:51:19;;;;;;;14.55;7.90;;;;;;;12.36;79.18;101050.59;5047570;28;20388;-71
2023/04/28 05:53:47;;;;;;;9.98;6.95;;;;;;;13.78;83.03;101168.47;5046760;28;20052;-70
2023/04/28 05:56:16;;;;;;;20.08;9.20;;;;;;;14.63;69.16;101169.13;5044902;28;20056;-70
2023/04/28 05:58:43;;;;;;;18.80;9.35;;;;;;;14.98;68.79;101176.00;5046207;28;20439;-70
2023/04/28 06:01:09;;;;;;;29.02;9.25;;;;;;;14.77;68.70;101072.22;5039489;28;20042;-70
2023/04/28 06:03:35;;;;;;;16.33;7.35;;;;;;;14.78;62.80;101187.56;5044090;28;20503;-70
2023/04/28 06:06:00;;;;;;;17.67;6.35;;;;;;;13.50;57.71;101057.72;5047129;28;20098;-70
2023/04/28 06:08:26;;;;;;;7.75;4.88;;;;;;;14.38;57.25;101170.13;5043764;28;20049;-70
2023/04/28 06:10:51;;;;;;;8.35;5.22;;;;;;;14.38;56.71;101184.19;5046360;28;20053;-70
2023/04/28 06:13:17;;;;;;;11.82;5.47;;;;;;;14.95;57.88;101161.03;5046774;28;20048;-71
2023/04/28 06:15:42;;;;;;;14.52;5.55;;;;;;;14.61;55.30;101060.00;5046605;28;20029;-69
2023/04/28 06:18:08;;;;;;;12.52;5.30;;;;;;;14.70;55.56;101091.63;5047041;28;20036;-71
2023/04/28 06:20:34;;;;;;;9.35;4.90;;;;;;;14.14;53.23;101061.97;5046363;28;20036;-70
2023/04/28 06:23:00;;;;;;;5.97;3.72;;;;;;;14.04;50.26;101189.53;5046537;28;20057;-70
2023/04/28 06:25:26;;;;;;;6.03;4.25;;;;;;;14.99;50.08;101141.66;5045989;28;20473;-69
2023/04/28 06:27:51;;;;;;;23.95;7.22;;;;;;;14.33;52.72;101106.75;5046164;28;20033;-70
2023/04/28 06:30:19;;;;;;;12.25;4.13;;;;;;;15.47;52.07;101183.59;5047000;28;20025;-70
2023/04/28 06:32:45;;;;;;;8.90;4.30;;;;;;;13.88;52.71;101082.25;5033631;28;20119;-69
2023/04/28 06:35:10;;;;;;;9.27;4.45;;;;;;;14.00;51.81;101176.34;5045607;28;20048;-72
2023/04/28 06:37:35;;;;;;;10.50;5.07;;;;;;;13.52;52.63;101079.72;5046368;28;20479;-70
2023/04/28 06:40:01;;;;;;;14.50;4.88;;;;;;;14.84;49.30;101132.94;5045737;28;20064;-69
2023/04/28 06:42:27;;;;;;;35.53;5.35;;;;;;;15.29;49.79;101159.94;5046996;28;20143;-70
2023/04/28 06:44:52;;;;;;;5.72;2.75;;;;;;;13.33;50.04;101141.25;5046139;28;20445;-71
2023/04/28 06:47:18;;;;;;;7.43;3.63;;;;;;;13.24;50.46;101159.66;5046578;28;20040;-69
2023/04/28 06:49:46;;;;;;;16.00;4.35;;;;;;;12.64;51.80;101164.75;5044521;28;20091;-69
2023/04/28 06:52:13;;;;;;;8.73;4.05;;;;;;;13.52;54.39;101168.47;5028057;28;20080;-72
2023/04/28 06:54:38;;;;;;;10.18;3.55;;;;;;;12.91;48.97;101165.75;5026584;28;20037;-71
2023/04/28 06:57:04;;;;;;;11.15;4.88;;;;;;;11.60;51.01;101181.66;5027908;28;20040;-69
2023/04/28 06:59:30;;;;;;;7.72;5.30;;;;;;;11.00;50.73;101056.78;5028198;28;20488;-70
2023/04/28 07:01:55;;;;;;;8.15;3.83;;;;;;;12.03;52.14;101113.63;5021514;28;20094;-71
2023/04/28 07:04:21;;;;;;;7.47;3.15;;;;;;;12.33;49.75;101169.91;5026777;28;20156;-71
2023/04/28 07:06:47;;;;;;;5.38;2.67;;;;;;;11.34;47.74;101197.22;5027569;28;20457;-70
2023/04/28 07:09:12;;;;;;;20.48;4.10;;;;;;;10.85;50.12;101162.56;5035905;28;20025;-70
2023/04/28 07:11:38;;;;;;;20.67;4.00;;;;;;;10.63;48.23;101093.22;5028741;28;20136;-70
2023/04/28 07:14:03;;;;;;;9.00;2.42;;;;;;;10.17;46.70;101050.69;5027333;28;20048;-69
2023/04/28 07:16:29;;;;;;;16.58;2.55;;;;;;;11.32;46.55;101198.06;5031397;28;20057;-69
2023/04/28 07:18:55;;;;;;;9.85;6.18;;;;;;;10.51;48.89;101061.56;5029122;28;20067;-72
2023/04/28 07:21:20;;;;;;;6.00;3.30;;;;;;;11.57;47.14;101176.41;5039938;28;20029;-69
2023/04/28 07:23:47;;;;;;;10.65;3.28;;;;;;;10.78;48.79;101080.22;5029533;28;20521;-69
2023/04/28 07:26:15;;;;;;;13.65;4.00;;;;;;;10.76;48.23;101067.97;5035511;28;20050;-68
2023/04/28 07:28:41;;;;;;;13.15;3.88;;;;;;;11.80;48.65;101167.81;5036162;28;20053;-71
2023/04/28 07:31:07;;;;;;;11.50;3.60;;;;;;;11.86;48.73;101159.94;5025215;28;20072;-69
2023/04/28 07:33:32;;;;;;;5.22;2.70;;;;;;;11.40;47.03;101181.50;5039760;28;20459;-71
2023/04/28 07:35:58;;;;;;;6.13;3.28;;;;;;;11.08;47.40;101065.63;5046030;28;20068;-71
2023/04/28 07:38:23;;;;;;;11.63;4.28;;;;;;;11.59;48.72;101198.31;5044936;28;20128;-70
2023/04/28 07:40:49;;;;;;;14.02;3.78;;;;;;;11.48;47.33;101183.31;5045696;28;20053;-71
2023/04/28 07:43:14;;;;;;;6.93;3.25;;;;;;;10.96;46.95;101087.41;5045603;28;20064;-70
2023/04/28 07:45:40;;;;;;;6.32;2.20;;;;;;;10.51;47.36;101057.22;5044235;28;20125;-71
2023/04/28 07:48:06;;;;;;;9.38;3.33;;;;;;;10.85;48.70;101083.81;5045973;28;20111;-72
2023/04/28 07:50:33;;;;;;;6.93;3.50;;;;;;;11.95;47.66;101154.78;5045618;28;20435;-71
2023/04/28 07:52:58;;;;;;;9.20;4.65;;;;;;;12.20;47.49;101137.41;5045493;28;20107;-69
2023/04/28 07:55:24;;;;;;;23.23;4.10;;;;;;;12.18;47.87;101178.59;5042265;28;20073;-69
2023/04/28 07:57:50;;;;;;;7.90;3.63;;;;;;;11.45;46.69;101076.44;5031404;28;20394;-69
2023/04/28 08:00:16;;;;;;;18.55;9.38;;;;;;;11.34;48.98;101072.84;5029997;28;20128;-70
2023/04/28 08:02:41;;;;;;;12.85;5.70;;;;;;;11.65;52.13;101063.41;5040229;28;20044;-69
2023/04/28 08:05:08;;;;;;;13.02;6.55;;;;;;;12.32;55.47;101165.53;5047155;28;20056;-69
2023/04/28 08:07:34;;;;;;;26.33;6.93;;;;;;;11.57;55.76;101050.22;5048640;28;20053;-69
2023/04/28 08:10:00;;;;;;;16.65;5.90;;;;;;;12.48;58.05;101157.69;5049195;28;20045;-72
2023/04/28 08:12:26;;;;;;;9.98;4.85;;;;;;;11.65;59.18;101052.88;5047356;28;20099;-69
2023/04/28 08:14:51;;;;;;;17.17;8.10;;;;;;;12.23;56.62;101073.38;5048657;28;20128;-69
2023/04/28 08:17:17;;;;;;;49.53;6.82;;;;;;;12.15;57.33;101036.53;5048652;28;20124;-70
2023/04/28 08:19:45;;;;;;;9.65;4.93;;;;;;;12.37;56.56;101102.38;5049047;28;20200;-69
2023/04/28 08:22:11;;;;;;;12.23;4.72;;;;;;;12.29;58.00;101044.47;5048131;28;20124;-71
2023/04/28 08:24:36;;;;;;;6.43;4.25;;;;;;;12.56;54.50;101050.66;5049079;28;20041;-71
2023/04/28 08:27:02;;;;;;;8.68;4.18;;;;;;;12.97;54.57;101119.22;5049329;28;20401;-71
2023/04/28 08:29:31;;;;;;;13.38;5.00;;;;;;;13.03;53.52;101142.06;5048101;28;20056;-70
2023/04/28 08:31:57;;;;;;;12.40;5.00;;;;;;;12.51;49.97;101131.38;5042250;28;20037;-69
2023/04/28 08:34:23;;;;;;;12.38;3.50;;;;;;;12.63;50.61;101118.25;5048481;28;20048;-71
2023/04/28 08:36:48;;;;;;;15.65;5.38;;;;;;;11.88;52.03;101021.50;5047915;28;20124;-71
2023/04/28 08:39:14;;;;;;;9.40;4.47;;;;;;;11.87;52.16;100989.91;5048540;28;20583;-69
2023/04/28 08:41:40;;;;;;;7.22;4.57;;;;;;;12.19;50.95;101016.34;5048062;28;20048;-70
2023/04/28 08:44:08;;;;;;;9.43;4.18;;;;;;;12.12;50.24;101028.59;5048075;28;20048;-71
2023/04/28 08:46:35;;;;;;;11.07;5.53;;;;;;;12.60;50.40;101115.63;5047858;28;20037;-68
2023/04/28 08:49:04;;;;;;;25.08;4.20;;;;;;;12.86;51.51;101092.84;5048457;28;20123;-71
2023/04/28 08:51:36;;;;;;;8.82;4.70;;;;;;;12.90;49.04;101072.69;5048091;28;20041;-69
2023/04/28 08:54:05;;;;;;;10.48;4.72;;;;;;;13.15;50.52;101091.13;5029808;28;20764;-71
2023/04/28 08:56:33;;;;;;;7.78;4.05;;;;;;;13.29;50.92;101113.13;5029425;28;20072;-69
2023/04/28 08:59:04;;;;;;;7.65;4.45;;;;;;;12.97;52.15;101063.00;5037060;28;20041;-69
2023/04/28 09:01:30;;;;;;;22.05;4.82;;;;;;;12.78;52.21;101018.25;5030771;28;20045;-71
2023/04/28 09:03:56;;;;;;;20.15;5.57;;;;;;;12.42;49.92;100996.22;5028908;28;20489;-71
2023/04/28 09:06:22;;;;;;;7.85;4.88;;;;;;;12.53;51.43;101006.78;5035321;28;20033;-71
2023/04/28 09:08:48;;;;;;;7.85;4.13;;;;;;;12.95;49.64;101110.44;5037224;28;20037;-70
2023/04/28 09:11:15;;;;;;;12.88;5.13;;;;;;;12.26;51.75;101097.06;5040120;28;20041;-71
2023/04/28 09:13:40;;;;;;;9.07;4.93;;;;;;;12.25;53.06;100997.97;5040784;28;20049;-69
2023/04/28 09:16:06;;;;;;;23.80;6.07;;;;;;;12.82;51.76;101093.72;5031307;28;20537;-70
2023/04/28 09:18:32;;;;;;;8.18;4.13;;;;;;;12.55;51.77;101107.72;5027609;28;20034;-70
2023/04/28 09:21:10;;;;;;;40.85;5.53;;;;;;;11.94;52.58;101003.13;5037468;28;20047;-70
2023/04/28 09:23:50;;;;;;;13.90;4.78;;;;;;;13.55;53.08;101088.50;5046341;28;20041;-71
2023/04/28 09:26:16;;;;;;;8.15;5.28;;;;;;;14.74;50.96;101105.69;5031613;28;20049;-71
2023/04/28 09:28:42;;;;;;;8.65;5.72;;;;;;;14.95;49.97;101116.13;5029064;28;20480;-70
2023/04/28 09:31:23;;;;;;;13.70;6.32;;;;;;;15.67;52.89;101079.41;5026963;28;20083;-70
2023/04/28 09:33:58;;;;;;;8.70;6.35;;;;;;;13.94;49.92;101006.63;5057427;28;20044;-70
2023/04/28 09:36:29;;;;;;;22.83;7.32;;;;;;;14.66;51.12;101102.22;5047113;28;20028;-71
2023/04/28 09:38:56;;;;;;;30.85;7.00;;;;;;;14.69;53.61;101105.72;5046333;28;20475;-72
2023/04/28 09:41:35;;;;;;;16.20;5.95;;;;;;;15.66;51.49;101073.19;5046741;28;20056;-72
2023/04/28 09:44:17;;;;;;;36.83;5.50;;;;;;;15.83;50.34;100960.16;5046363;28;20078;-70
2023/04/28 09:46:47;;;;;;;19.80;6.97;;;;;;;15.99;51.12;100971.41;5045587;28;20033;-70
2023/04/28 09:49:13;;;;;;;34.55;7.88;;;;;;;15.95;49.47;101085.31;5046797;28;20045;-71
2023/04/28 09:51:39;;;;;;;48.08;11.38;;;;;;;15.47;49.93;100984.38;5046208;28;20037;-70
2023/04/28 09:54:06;;;;;;;17.63;5.00;;;;;;;16.33;47.13;101055.69;5046392;28;20813;-70
2023/04/28 09:56:33;;;;;;;21.52;5.50;;;;;;;16.81;46.44;100943.69;5050802;28;20056;-70
2023/04/28 09:59:01;;;;;;;13.38;5.85;;;;;;;17.56;46.49;101056.44;5046181;28;20464;-70
2023/04/28 10:01:31;;;;;;;10.27;4.90;;;;;;;16.76;46.57;100937.56;5030016;28;20121;-70
2023/04/28 10:03:58;;;;;;;5.43;3.78;;;;;;;16.03;43.72;101055.16;5026450;28;20071;-71
2023/04/28 10:06:26;;;;;;;6.47;3.92;;;;;;;16.78;47.18;101055.03;5025720;28;20049;-70
2023/04/28 10:08:52;;;;;;;22.20;5.60;;;;;;;15.35;45.47;100969.50;5035028;28;20532;-69
2023/04/28 10:11:19;;;;;;;25.70;4.80;;;;;;;15.84;46.34;101016.59;5030060;28;20049;-69
2023/04/28 10:13:45;;;;;;;38.03;7.93;;;;;;;15.49;47.95;101044.28;5034446;28;20052;-71
2023/04/28 10:16:13;;;;;;;65.97;8.02;;;;;;;15.51;48.50;101053.09;5039295;28;20049;-69
2023/04/28 10:18:39;;;;;;;18.85;4.85;;;;;;;14.35;48.28;100912.25;5026312;28;20040;-71
2023/04/28 10:21:06;;;;;;;28.27;5.30;;;;;;;15.34;48.33;101039.16;5030730;28;20509;-70
2023/04/28 10:23:41;;;;;;;15.07;3.75;;;;;;;15.54;47.67;101046.88;5029829;28;20523;-69
2023/04/28 10:26:11;;;;;;;40.83;6.53;;;;;;;14.64;47.78;101022.13;5028725;28;20171;-69
2023/04/28 10:28:44;;;;;;;8.68;4.25;;;;;;;14.82;51.23;100932.16;5030931;28;20595;-69
2023/04/28 10:31:14;;;;;;;9.45;4.18;;;;;;;16.54;47.75;101058.94;5022664;28;20041;-70
2023/04/28 10:33:40;;;;;;;8.38;4.50;;;;;;;16.13;47.73;100931.53;5024081;28;20044;-70
2023/04/28 10:36:06;;;;;;;16.85;4.55;;;;;;;17.12;48.16;101041.31;5029256;28;20037;-70
2023/04/28 10:38:33;;;;;;;10.73;4.72;;;;;;;17.42;47.13;101018.63;5027626;28;20045;-69
2023/04/28 10:41:03;;;;;;;13.75;3.97;;;;;;;16.22;46.44;100954.31;5030786;28;20889;-70
2023/04/28 10:43:29;;;;;;;11.73;3.80;;;;;;;17.01;43.49;101034.38;5033507;28;20528;-70
2023/04/28 10:46:00;;;;;;;11.70;4.13;;;;;;;16.64;44.14;101034.06;5027809;28;20056;-70
2023/04/28 10:48:29;;;;;;;27.10;4.03;;;;;;;16.14;48.15;101028.56;5025649;28;20033;-69
2023/04/28 10:51:04;;;;;;;6.50;3.70;;;;;;;14.94;46.35;101027.16;5034831;28;20048;-71
2023/04/28 10:53:44;;;;;;;53.35;6.88;;;;;;;15.89;44.87;101035.94;5029771;28;20386;-70
2023/04/28 10:56:15;;;;;;;18.00;5.07;;;;;;;16.42;46.00;101029.06;5027767;28;20041;-70
2023/04/28 10:58:42;;;;;;;8.68;4.57;;;;;;;16.88;44.32;101016.94;5028368;28;20375;-69
2023/04/28 11:01:20;;;;;;;12.35;4.80;;;;;;;17.52;42.08;101007.84;5019662;28;20046;-69
2023/04/28 11:04:06;;;;;;;9.52;3.75;;;;;;;17.12;43.09;101006.81;5024263;28;20068;-69
2023/04/28 11:06:38;;;;;;;10.70;3.83;;;;;;;17.64;45.66;100984.63;5025750;28;20536;-72
2023/04/28 11:09:13;;;;;;;9.00;4.47;;;;;;;17.80;43.35;101006.44;5031548;28;20115;-69
2023/04/28 11:11:59;;;;;;;11.07;3.42;;;;;;;17.76;41.98;101007.38;5040020;28;20049;-69
2023/04/28 11:14:24;;;;;;;14.45;4.30;;;;;;;17.42;40.55;101003.63;5036882;28;20072;-72